Airfield :
LOGIN :

Register | Disclaimer

   EN    FR    IT 

 










Legend :    VFR   Marginal VFR   IFR   Intensive IFR   Very Intensive IFR
Visi :
Ceiling :
>= 8 km
>= 3000ft
5 to 8 km
1000 to 3000 ft
1500m to 5 km
500 to 1000 ft
800 to 1500m
200 to 500 ft
< 800m
< 200 ft
Symbols :   Thunderstorms  Fog  Heavy snow  Heavy precipitations  Wind > 20 kt
SIGMETs :     Misc.  Thunderstorms  Icing  Turbulence  Mountain Waves  Volcanic Ashes






- Airport Elevation : 174 ft
- IATA code : RYG


ENRY - Moss , Rygge

CURRENT METAR :
  • 061820Z AUTO 21008KT 9999NDV SCT051/// OVC066/// 12/09 Q0990

EXPIRED METARs :
  • 061750Z AUTO 21008KT 9999NDV -DZ BKN053/// BKN064/// 12/09 Q0990 REDZ
  • 061720Z AUTO 21009KT 9999NDV -DZ BKN055/// 12/10 Q0990
  • 061650Z AUTO 21011KT 9999NDV -DZ OVC053/// 12/10 Q0990
  • 061620Z AUTO 21011KT 9999NDV -DZ FEW015/// SCT025/// BKN044/// 12/10 Q0989
  • 061550Z AUTO 22008KT 190V250 9999NDV DZ FEW016/// SCT041/// OVC053/// 12/10 Q0989 RESHRA RERA

TAF TAF ENRY
Valid from the 06 at 18:00 until the 07 at 18:00 UTC


0618/0718 21008KT 9999 SCT010 BKN030
TEMPO 0618/0709 SHRA BKN012 SCT025CB
TEMPO 0618/0715 21015G28KT



MET'MAP, your aeronautical weather chart ! - Copyright ORBIFLY December 2007 - Disclaimer

ORBIFLY MET'MAP TEAM :

Programming & Development : Alexandra Zaïnal
Concept & original design : Baudouin d'Aumeries
Assistance for programming : Marc-Olivier Méhu
Technical & hardware support : Manuel Goepfert

Contact : metmap@orbifly.com




SOURCES & CREDITS :

   NOAA